Castlegar, Canada
Current Conditions -  °F | °C
As of 9:55 PM on Monday 26 Jan 2015 (Local Time) from K65S Reporting Station
Moderate Fog Moderate Fog  
Wind Chill: 32°   Ceiling: 100
Heat Index: 32°   Visibility: 0mi
Dew Point: 32°   Wind: 0mph
Humidity: 100%   Direction: NA
Pressure: 30.02"   Gusts: NA
Location:  49.3°N, 117.65°W
Report Text: K65S 270555Z AUTO 00000KT M1/4SM FZFG OVC001 00/00 A3002 RMK AO2
Loading
Personal Weather Stations






























Interactive Weather Map New forecast layout! Learn more

10-Day Weather Forecast

Advertisements
Track Severe Weather on mobile